createdAt,value
2022-11-23T00:02:19.275Z,2.22
2022-11-23T00:04:45.860Z,2.40
2022-11-23T00:07:12.411Z,2.40
2022-11-23T00:09:38.962Z,2.38
2022-11-23T00:12:05.631Z,2.35
2022-11-23T00:14:32.374Z,2.42
2022-11-23T00:16:58.906Z,2.42
2022-11-23T00:19:25.426Z,2.20
2022-11-23T00:21:51.930Z,2.60
2022-11-23T00:24:18.507Z,2.40
2022-11-23T00:26:45.092Z,2.55
2022-11-23T00:29:11.622Z,2.55
2022-11-23T00:31:38.136Z,2.60
2022-11-23T00:34:04.660Z,2.78
2022-11-23T00:36:31.369Z,2.65
2022-11-23T00:38:58.796Z,2.30
2022-11-23T00:41:27.393Z,2.63
2022-11-23T00:43:54.078Z,2.40
2022-11-23T00:46:25.884Z,2.42
2022-11-23T00:48:53.894Z,2.50
2022-11-23T00:51:23.058Z,2.47
2022-11-23T00:53:50.898Z,2.25
2022-11-23T00:56:18.401Z,2.80
2022-11-23T00:58:49.667Z,2.42
2022-11-23T01:01:17.435Z,2.58
2022-11-23T01:03:46.759Z,2.65
2022-11-23T01:06:16.468Z,2.33
2022-11-23T01:08:43.968Z,2.03
2022-11-23T01:11:12.321Z,2.42
2022-11-23T01:13:41.241Z,2.22
2022-11-23T01:16:13.198Z,2.20
2022-11-23T01:18:39.747Z,2.25
2022-11-23T01:21:06.505Z,2.35
2022-11-23T01:23:33.133Z,2.28
2022-11-23T01:26:05.947Z,2.30
2022-11-23T01:28:32.936Z,2.35
2022-11-23T01:31:07.747Z,2.35
2022-11-23T01:33:35.128Z,2.60
2022-11-23T01:36:08.218Z,2.75
2022-11-23T01:38:34.733Z,2.40
2022-11-23T01:41:01.255Z,2.25
2022-11-23T01:43:27.752Z,2.45
2022-11-23T01:45:59.381Z,2.10
2022-11-23T01:48:50.711Z,2.17
2022-11-23T01:51:30.849Z,2.28
2022-11-23T01:54:02.289Z,1.98
2022-11-23T01:56:34.273Z,1.90
2022-11-23T01:59:04.673Z,2.25
2022-11-23T02:01:31.824Z,2.42
2022-11-23T02:04:00.700Z,2.63
2022-11-23T02:06:27.557Z,1.83
2022-11-23T02:08:54.376Z,2.17
2022-11-23T02:11:20.923Z,2.25
2022-11-23T02:13:50.217Z,2.58
2022-11-23T02:16:17.864Z,2.35
2022-11-23T02:18:47.112Z,1.98
2022-11-23T02:21:14.526Z,2.22
2022-11-23T02:24:01.796Z,2.08
2022-11-23T02:26:30.660Z,2.05
2022-11-23T02:29:09.487Z,2.13
2022-11-23T02:31:36.322Z,2.08
2022-11-23T02:34:02.829Z,1.75
2022-11-23T02:36:41.710Z,2.35
2022-11-23T02:39:11.259Z,2.10
2022-11-23T02:41:40.413Z,1.85
2022-11-23T02:44:14.636Z,1.90
2022-11-23T02:46:41.272Z,2.03
2022-11-23T02:49:07.814Z,1.92
2022-11-23T02:51:34.394Z,2.50
2022-11-23T02:54:00.877Z,2.35
2022-11-23T02:56:27.534Z,1.95
2022-11-23T02:58:54.055Z,2.25
2022-11-23T03:01:20.618Z,2.20
2022-11-23T03:03:47.137Z,2.30
2022-11-23T03:06:13.625Z,2.20
2022-11-23T03:08:40.129Z,1.85
2022-11-23T03:11:06.613Z,2.30
2022-11-23T03:13:33.158Z,2.35
2022-11-23T03:15:59.710Z,1.90
2022-11-23T03:18:26.299Z,2.03
2022-11-23T03:20:52.816Z,2.20
2022-11-23T03:23:19.546Z,1.85
2022-11-23T03:25:46.079Z,2.08
2022-11-23T03:28:12.587Z,1.77
2022-11-23T03:30:39.160Z,2.67
2022-11-23T03:33:05.659Z,2.33
2022-11-23T03:35:32.188Z,2.55
2022-11-23T03:37:58.754Z,2.38
2022-11-23T03:40:25.289Z,2.10
2022-11-23T03:42:51.768Z,2.50
2022-11-23T03:45:18.279Z,1.98
2022-11-23T03:47:44.818Z,2.45
2022-11-23T03:50:11.538Z,2.40
2022-11-23T03:52:38.095Z,2.63
2022-11-23T03:55:05.395Z,2.60
2022-11-23T03:57:31.927Z,2.20
2022-11-23T03:59:58.505Z,2.22
2022-11-23T04:02:25.022Z,2.25
2022-11-23T04:04:51.662Z,2.28
2022-11-23T04:07:18.204Z,2.40
2022-11-23T04:09:44.911Z,2.45
2022-11-23T04:12:11.475Z,2.58
2022-11-23T04:14:38.069Z,2.30
2022-11-23T04:17:04.819Z,2.25
2022-11-23T04:19:31.665Z,2.30
2022-11-23T04:21:58.411Z,2.63
2022-11-23T04:24:24.947Z,2.70
2022-11-23T04:26:51.432Z,2.65
2022-11-23T04:29:17.973Z,2.72
2022-11-23T04:31:44.614Z,2.63
2022-11-23T04:34:11.279Z,2.97
2022-11-23T04:36:37.871Z,2.45
2022-11-23T04:39:04.454Z,2.30
2022-11-23T04:41:30.973Z,2.40
2022-11-23T04:43:57.918Z,2.40
2022-11-23T04:46:24.406Z,2.45
2022-11-23T04:48:50.986Z,2.28
2022-11-23T04:51:17.567Z,2.22
2022-11-23T04:53:44.082Z,2.03
2022-11-23T04:56:10.635Z,2.17
2022-11-23T04:58:37.314Z,2.28
2022-11-23T05:01:04.628Z,2.33
2022-11-23T05:03:31.454Z,4.40
2022-11-23T05:05:59.143Z,2.28
2022-11-23T05:08:25.716Z,2.85
2022-11-23T05:10:52.252Z,2.78
2022-11-23T05:13:18.929Z,2.60
2022-11-23T05:15:45.479Z,2.25
2022-11-23T05:18:12.080Z,2.13
2022-11-23T05:20:38.978Z,2.45
2022-11-23T05:23:05.665Z,2.83
2022-11-23T05:25:32.628Z,2.75
2022-11-23T05:28:03.939Z,2.38
2022-11-23T05:30:43.376Z,2.85
2022-11-23T05:33:09.922Z,2.50
2022-11-23T05:35:36.780Z,2.40
2022-11-23T05:38:03.583Z,2.50
2022-11-23T05:40:30.099Z,2.17
2022-11-23T05:42:59.987Z,2.33
2022-11-23T05:45:27.058Z,2.72
2022-11-23T05:47:55.894Z,2.72
2022-11-23T05:50:23.890Z,2.20
2022-11-23T05:52:50.378Z,2.30
2022-11-23T05:55:16.917Z,2.60
2022-11-23T05:57:43.589Z,2.22
2022-11-23T06:00:10.794Z,2.60
2022-11-23T06:02:40.991Z,2.22
2022-11-23T06:07:35.477Z,2.58
2022-11-23T06:10:02.890Z,3.05
2022-11-23T06:12:29.772Z,2.70
2022-11-23T06:14:56.395Z,2.70
2022-11-23T06:17:23.901Z,3.55
2022-11-23T06:19:50.662Z,2.70
2022-11-23T06:22:17.235Z,2.20
2022-11-23T06:24:43.795Z,2.63
2022-11-23T06:27:13.997Z,2.58
2022-11-23T06:29:43.905Z,3.03
2022-11-23T06:32:10.536Z,2.83
2022-11-23T06:34:37.148Z,2.20
2022-11-23T06:37:03.812Z,2.63
2022-11-23T06:39:30.487Z,2.67
2022-11-23T06:42:16.551Z,2.45
2022-11-23T06:44:43.829Z,2.65
2022-11-23T06:47:16.490Z,2.60
2022-11-23T06:49:43.839Z,2.53
2022-11-23T06:52:10.411Z,2.85
2022-11-23T06:54:36.978Z,2.60
2022-11-23T06:57:03.463Z,2.47
2022-11-23T06:59:30.098Z,2.10
2022-11-23T07:01:56.758Z,2.55
2022-11-23T07:04:23.270Z,2.47
2022-11-23T07:06:49.835Z,2.28
2022-11-23T07:09:16.340Z,2.83
2022-11-23T07:11:42.882Z,2.72
2022-11-23T07:14:09.680Z,2.55
2022-11-23T07:16:36.245Z,2.70
2022-11-23T07:19:03.044Z,2.42
2022-11-23T07:21:29.674Z,2.60
2022-11-23T07:23:56.648Z,2.38
2022-11-23T07:26:23.147Z,2.63
2022-11-23T07:28:49.638Z,2.92
2022-11-23T07:31:16.499Z,2.90
2022-11-23T07:33:46.678Z,2.58
2022-11-23T07:36:14.247Z,3.17
2022-11-23T07:38:40.962Z,3.30
2022-11-23T07:41:08.808Z,2.50
2022-11-23T07:43:35.334Z,3.30
2022-11-23T07:46:01.869Z,2.45
2022-11-23T07:48:33.187Z,2.92
2022-11-23T07:51:02.635Z,3.03
2022-11-23T07:53:29.187Z,3.10
2022-11-23T07:55:59.172Z,3.80
2022-11-23T07:58:25.752Z,3.53
2022-11-23T08:00:52.571Z,4.25
2022-11-23T08:03:27.647Z,3.47
2022-11-23T08:05:54.693Z,3.10
2022-11-23T08:08:21.273Z,3.63
2022-11-23T08:10:52.987Z,3.40
2022-11-23T08:13:21.450Z,3.00
2022-11-23T08:15:53.736Z,2.85
2022-11-23T08:18:21.955Z,2.88
2022-11-23T08:20:48.521Z,2.67
2022-11-23T08:23:15.141Z,2.78
2022-11-23T08:25:41.758Z,3.17
2022-11-23T08:28:08.376Z,2.65
2022-11-23T08:30:35.844Z,2.90
2022-11-23T08:33:04.735Z,3.38
2022-11-23T08:35:33.733Z,3.15
2022-11-23T08:38:00.261Z,2.60
2022-11-23T08:40:26.918Z,2.70
2022-11-23T08:42:54.414Z,2.38
2022-11-23T08:45:21.719Z,2.90
2022-11-23T08:47:48.567Z,2.25
2022-11-23T08:50:15.143Z,2.80
2022-11-23T08:52:41.734Z,2.80
2022-11-23T08:55:09.051Z,2.63
2022-11-23T08:57:35.632Z,2.90
2022-11-23T09:00:03.144Z,2.55
2022-11-23T09:02:29.848Z,2.20
2022-11-23T09:04:56.452Z,3.05
2022-11-23T09:07:23.056Z,2.45
2022-11-23T09:09:49.657Z,2.78
2022-11-23T09:12:16.231Z,2.78
2022-11-23T09:14:42.898Z,2.67
2022-11-23T09:17:09.765Z,2.70
2022-11-23T09:19:36.330Z,2.72
2022-11-23T09:22:03.383Z,2.45
2022-11-23T09:24:30.065Z,2.40
2022-11-23T09:26:57.190Z,2.50
2022-11-23T09:29:25.424Z,2.67
2022-11-23T09:31:52.129Z,2.80
2022-11-23T09:34:18.661Z,2.45
2022-11-23T09:36:45.242Z,2.80
2022-11-23T09:39:11.850Z,3.10
2022-11-23T09:42:15.656Z,2.88
2022-11-23T09:45:00.032Z,2.35
2022-11-23T09:47:35.136Z,2.80
2022-11-23T09:50:07.511Z,2.75
2022-11-23T09:52:37.328Z,2.67
2022-11-23T09:55:14.772Z,2.42
2022-11-23T09:57:44.763Z,2.63
2022-11-23T10:00:24.044Z,2.40
2022-11-23T10:02:50.656Z,2.67
2022-11-23T10:05:22.997Z,2.25
2022-11-23T10:08:04.347Z,2.63
2022-11-23T10:10:55.707Z,2.50
2022-11-23T10:13:34.412Z,2.33
2022-11-23T10:16:21.074Z,2.55
2022-11-23T10:19:13.180Z,2.17
2022-11-23T10:22:06.451Z,2.22
2022-11-23T10:24:38.682Z,2.35
2022-11-23T10:27:13.792Z,2.50
2022-11-23T10:29:41.936Z,2.53
2022-11-23T10:32:25.141Z,3.03
2022-11-23T10:35:02.722Z,2.40
2022-11-23T10:37:29.480Z,2.17
2022-11-23T10:39:56.028Z,2.35
2022-11-23T10:42:25.233Z,2.42
2022-11-23T10:44:53.159Z,2.10
2022-11-23T10:47:48.913Z,1.77
2022-11-23T10:50:21.590Z,2.50
2022-11-23T10:53:15.852Z,1.88
2022-11-23T10:55:53.601Z,2.88
2022-11-23T10:58:35.014Z,2.20
2022-11-23T11:01:07.409Z,2.17
2022-11-23T11:03:35.378Z,2.80
2022-11-23T11:06:10.820Z,2.92
2022-11-23T11:08:51.546Z,1.67
2022-11-23T11:11:37.455Z,1.98
2022-11-23T11:14:15.980Z,2.15
2022-11-23T11:16:56.881Z,1.95
2022-11-23T11:19:33.728Z,2.17
2022-11-23T11:22:02.860Z,1.85
2022-11-23T11:24:37.808Z,2.67
2022-11-23T11:27:12.264Z,3.35
2022-11-23T11:29:47.397Z,2.08
2022-11-23T11:32:34.978Z,2.30
2022-11-23T11:35:19.136Z,1.75
2022-11-23T11:37:50.092Z,1.98
2022-11-23T11:40:19.224Z,2.00
2022-11-23T11:43:12.633Z,2.22
2022-11-23T11:46:21.406Z,2.83
2022-11-23T11:48:48.361Z,1.85
2022-11-23T11:51:24.053Z,2.22
2022-11-23T11:54:16.509Z,2.00
2022-11-23T11:56:47.048Z,2.13
2022-11-23T11:59:45.148Z,2.58
2022-11-23T12:02:24.234Z,2.05
2022-11-23T12:05:01.328Z,1.60
2022-11-23T12:07:31.869Z,1.83
2022-11-23T12:12:56.584Z,1.88
2022-11-23T12:15:53.344Z,1.65
2022-11-23T12:18:55.834Z,1.60
2022-11-23T12:21:41.567Z,1.92
2022-11-23T12:24:13.943Z,1.90
2022-11-23T12:26:53.342Z,1.90
2022-11-23T12:29:46.986Z,2.20
2022-11-23T12:32:51.761Z,1.92
2022-11-23T12:35:20.821Z,1.25
2022-11-23T12:38:20.278Z,2.50
2022-11-23T12:41:08.041Z,2.22
2022-11-23T12:43:37.508Z,1.70
2022-11-23T12:46:12.161Z,1.80
2022-11-23T12:49:01.202Z,1.63
2022-11-23T12:51:45.486Z,1.58
2022-11-23T12:54:34.843Z,1.60
2022-11-23T12:57:21.101Z,1.38
2022-11-23T13:00:16.212Z,1.83
2022-11-23T13:02:45.780Z,1.70
2022-11-23T13:05:43.360Z,1.75
2022-11-23T13:08:32.370Z,1.35
2022-11-23T13:11:23.813Z,1.77
2022-11-23T13:14:14.974Z,1.30
2022-11-23T13:17:11.630Z,1.27
2022-11-23T13:20:06.585Z,2.28
2022-11-23T13:22:34.091Z,1.35
2022-11-23T13:25:12.942Z,1.50
2022-11-23T13:27:43.401Z,1.27
2022-11-23T13:33:34.221Z,1.27
2022-11-23T13:36:09.534Z,1.48
2022-11-23T13:38:41.741Z,1.35
2022-11-23T13:41:58.367Z,1.45
2022-11-23T13:44:31.571Z,1.10
2022-11-23T13:47:03.197Z,1.40
2022-11-23T13:49:38.376Z,0.95
2022-11-23T13:52:18.346Z,1.23
2022-11-23T13:55:08.863Z,1.48
2022-11-23T13:57:40.694Z,1.17
2022-11-23T14:00:44.745Z,1.00
2022-11-23T14:03:42.355Z,1.30
2022-11-23T14:06:58.237Z,1.35
2022-11-23T14:09:51.931Z,1.02
2022-11-23T14:12:44.668Z,1.10
2022-11-23T14:15:34.081Z,1.05
2022-11-23T14:18:31.479Z,1.35
2022-11-23T14:21:01.866Z,1.75
2022-11-23T14:23:44.185Z,1.17
2022-11-23T14:26:45.697Z,0.85
2022-11-23T14:29:21.093Z,1.10
2022-11-23T14:32:00.397Z,1.20
2022-11-23T14:34:47.050Z,1.17
2022-11-23T14:37:19.390Z,1.33
2022-11-23T14:39:56.140Z,1.42
2022-11-23T14:42:25.756Z,1.50
2022-11-23T14:44:53.752Z,1.50
2022-11-23T14:47:28.922Z,1.20
2022-11-23T14:49:56.438Z,1.23
2022-11-23T14:52:26.458Z,1.25
2022-11-23T14:54:57.659Z,1.67
2022-11-23T14:57:29.462Z,1.40
2022-11-23T15:00:02.415Z,1.70
2022-11-23T15:02:40.727Z,1.67
2022-11-23T15:05:27.980Z,1.45
2022-11-23T15:07:56.802Z,2.10
2022-11-23T15:11:00.866Z,1.48
2022-11-23T15:13:30.780Z,1.45
2022-11-23T15:15:58.671Z,1.58
2022-11-23T15:18:31.693Z,2.28
2022-11-23T15:21:07.776Z,2.05
2022-11-23T15:23:37.051Z,1.65
2022-11-23T15:26:07.014Z,1.63
2022-11-23T15:28:36.724Z,1.52
2022-11-23T15:31:24.869Z,1.70
2022-11-23T15:33:55.169Z,1.48
2022-11-23T15:36:25.339Z,1.80
2022-11-23T15:38:53.920Z,2.58
2022-11-23T15:41:20.882Z,1.83
2022-11-23T15:43:55.784Z,1.65
2022-11-23T15:46:27.658Z,1.77
2022-11-23T15:48:55.455Z,1.98
2022-11-23T15:51:53.331Z,1.60
2022-11-23T15:54:26.096Z,1.83
2022-11-23T15:57:01.111Z,1.90
2022-11-23T15:59:45.121Z,1.70
2022-11-23T16:02:21.999Z,1.90
2022-11-23T16:04:49.018Z,1.63
2022-11-23T16:07:20.242Z,1.67
2022-11-23T16:09:53.389Z,2.25
2022-11-23T16:12:49.754Z,2.13
2022-11-23T16:15:37.726Z,1.73
2022-11-23T16:18:13.643Z,2.15
2022-11-23T16:21:01.598Z,3.22
2022-11-23T16:23:44.466Z,1.85
2022-11-23T16:26:12.089Z,1.95
2022-11-23T16:28:40.725Z,2.28
2022-11-23T16:31:29.905Z,1.90
2022-11-23T16:33:57.119Z,1.77
2022-11-23T16:36:27.221Z,1.75
2022-11-23T16:38:55.019Z,1.58
2022-11-23T16:41:21.506Z,1.92
2022-11-23T16:43:53.949Z,1.40
2022-11-23T16:46:21.214Z,1.30
2022-11-23T16:48:48.000Z,1.52
2022-11-23T16:51:14.671Z,1.63
2022-11-23T16:54:12.051Z,1.38
2022-11-23T16:56:30.467Z,1.70
2022-11-23T16:58:57.433Z,2.00
2022-11-23T17:01:26.601Z,1.33
2022-11-23T17:03:53.929Z,2.15
2022-11-23T17:06:23.808Z,1.85
2022-11-23T17:08:59.350Z,1.77
2022-11-23T17:11:28.594Z,1.60
2022-11-23T17:13:56.967Z,2.05
2022-11-23T17:16:25.620Z,2.13
2022-11-23T17:18:52.762Z,2.42
2022-11-23T17:21:19.560Z,2.60
2022-11-23T17:23:46.793Z,1.98
2022-11-23T17:26:39.031Z,3.05
2022-11-23T17:29:12.104Z,4.03
2022-11-23T17:31:38.760Z,3.50
2022-11-23T17:34:05.312Z,4.90
2022-11-23T17:36:31.949Z,2.70
2022-11-23T17:38:59.076Z,6.80
2022-11-23T17:41:25.612Z,6.85
2022-11-23T17:43:52.253Z,3.47
2022-11-23T17:46:23.921Z,4.00
2022-11-23T17:49:02.888Z,3.60
2022-11-23T17:51:29.572Z,2.67
2022-11-23T17:53:59.236Z,2.90
2022-11-23T17:56:26.402Z,3.08
2022-11-23T17:58:53.079Z,2.92
2022-11-23T18:01:21.673Z,2.65
2022-11-23T18:03:48.607Z,2.58
2022-11-23T18:06:18.099Z,2.53
2022-11-23T18:08:45.425Z,2.45
2022-11-23T18:11:12.104Z,2.63
2022-11-23T18:13:39.503Z,2.90
2022-11-23T18:16:07.096Z,2.83
2022-11-23T18:18:34.358Z,2.63
2022-11-23T18:21:01.121Z,2.42
2022-11-23T18:23:28.561Z,2.78
2022-11-23T18:26:14.883Z,2.78
2022-11-23T18:28:41.403Z,3.30
2022-11-23T18:31:08.561Z,2.80
2022-11-23T18:33:35.248Z,3.20
2022-11-23T18:36:05.278Z,3.35
2022-11-23T18:38:32.800Z,3.10
2022-11-23T18:40:59.821Z,3.60
2022-11-23T18:43:26.365Z,3.60
2022-11-23T18:45:53.144Z,3.10
2022-11-23T18:48:19.789Z,3.67
2022-11-23T18:50:46.720Z,3.60
2022-11-23T18:53:15.636Z,5.10
2022-11-23T18:55:42.207Z,4.75
2022-11-23T18:58:08.961Z,4.43
2022-11-23T19:00:35.553Z,5.25
2022-11-23T19:03:02.807Z,4.13
2022-11-23T19:05:35.792Z,4.07
2022-11-23T19:08:07.532Z,3.83
2022-11-23T19:10:36.135Z,4.13
2022-11-23T19:13:05.760Z,4.47
2022-11-23T19:15:33.378Z,4.35
2022-11-23T19:18:00.514Z,4.70
2022-11-23T19:20:28.349Z,4.10
2022-11-23T19:22:55.585Z,4.43
2022-11-23T19:25:22.200Z,4.35
2022-11-23T19:27:49.152Z,3.97
2022-11-23T19:30:19.094Z,3.95
2022-11-23T19:32:45.699Z,4.32
2022-11-23T19:35:12.270Z,3.58
2022-11-23T19:37:38.996Z,3.70
2022-11-23T19:40:06.325Z,3.75
2022-11-23T19:42:35.701Z,3.13
2022-11-23T19:45:03.146Z,4.35
2022-11-23T19:47:31.579Z,3.80
2022-11-23T19:49:59.214Z,4.13
2022-11-23T19:52:48.052Z,3.78
2022-11-23T19:55:15.241Z,3.05
2022-11-23T19:57:41.979Z,3.58
2022-11-23T20:00:09.596Z,4.03
2022-11-23T20:02:36.168Z,3.60
2022-11-23T20:05:02.817Z,4.18
2022-11-23T20:07:31.521Z,4.45
2022-11-23T20:09:58.101Z,5.28
2022-11-23T20:12:24.639Z,4.43
2022-11-23T20:14:51.172Z,5.20
2022-11-23T20:17:17.701Z,4.95
2022-11-23T20:19:44.243Z,5.15
2022-11-23T20:22:10.717Z,4.60
2022-11-23T20:24:37.308Z,5.20
2022-11-23T20:27:03.844Z,5.13
2022-11-23T20:29:30.686Z,4.88
2022-11-23T20:31:57.800Z,5.03
2022-11-23T20:34:26.438Z,4.63
2022-11-23T20:36:53.181Z,5.20
2022-11-23T20:39:19.797Z,4.88
2022-11-23T20:41:49.323Z,4.90
2022-11-23T20:44:16.037Z,4.97
2022-11-23T20:47:01.362Z,6.75
2022-11-23T20:49:29.972Z,5.55
2022-11-23T20:51:56.983Z,5.30
2022-11-23T20:54:23.551Z,5.43
2022-11-23T20:56:50.093Z,5.45
2022-11-23T20:59:17.250Z,6.18
2022-11-23T21:01:43.936Z,11.93
2022-11-23T21:04:10.673Z,10.52
2022-11-23T21:06:39.455Z,13.13
2022-11-23T21:09:07.960Z,8.52
2022-11-23T21:11:53.272Z,8.70
2022-11-23T21:14:23.208Z,15.05
2022-11-23T21:16:58.863Z,14.07
2022-11-23T21:19:36.838Z,11.15
2022-11-23T21:22:14.430Z,15.15
2022-11-23T21:24:41.457Z,13.77
2022-11-23T21:27:12.023Z,21.52
2022-11-23T21:29:38.690Z,20.20
2022-11-23T21:32:05.635Z,17.13
2022-11-23T21:34:32.876Z,10.07
2022-11-23T21:36:59.932Z,15.70
2022-11-23T21:39:26.644Z,8.43
2022-11-23T21:41:54.111Z,8.20
2022-11-23T21:44:22.742Z,8.75
2022-11-23T21:46:49.894Z,8.43
2022-11-23T21:49:16.584Z,8.43
2022-11-23T21:51:44.582Z,8.35
2022-11-23T21:54:14.217Z,11.27
2022-11-23T21:56:42.264Z,8.80
2022-11-23T21:59:09.390Z,8.63
2022-11-23T22:01:36.986Z,7.55
2022-11-23T22:04:08.724Z,8.73
2022-11-23T22:06:36.438Z,8.43
2022-11-23T22:09:05.075Z,9.50
2022-11-23T22:11:33.969Z,8.43
2022-11-23T22:14:22.056Z,7.78
2022-11-23T22:16:50.099Z,8.30
2022-11-23T22:19:17.467Z,7.97
2022-11-23T22:21:45.404Z,8.30
2022-11-23T22:24:14.549Z,8.85
2022-11-23T22:26:42.016Z,7.90
2022-11-23T22:29:09.326Z,8.20
2022-11-23T22:31:36.329Z,8.98
2022-11-23T22:34:05.747Z,11.02
2022-11-23T22:36:32.844Z,8.80
2022-11-23T22:39:06.561Z,7.75
2022-11-23T22:41:36.458Z,8.02
2022-11-23T22:44:04.859Z,8.27
2022-11-23T22:46:31.519Z,9.13
2022-11-23T22:48:59.384Z,9.45
2022-11-23T22:51:28.503Z,10.25
2022-11-23T22:53:57.274Z,8.88
2022-11-23T22:56:24.154Z,8.43
2022-11-23T22:58:50.738Z,8.90
2022-11-23T23:01:22.467Z,8.73
2022-11-23T23:03:52.628Z,9.73
2022-11-23T23:06:21.603Z,7.82
2022-11-23T23:08:53.184Z,10.43
2022-11-23T23:11:21.144Z,6.43
2022-11-23T23:13:48.015Z,6.68
2022-11-23T23:16:14.707Z,6.43
2022-11-23T23:18:42.610Z,6.82
2022-11-23T23:21:14.988Z,7.20
2022-11-23T23:23:46.325Z,7.90
2022-11-23T23:26:14.807Z,7.57
2022-11-23T23:28:41.961Z,6.70
2022-11-23T23:31:10.911Z,6.72
2022-11-23T23:33:37.868Z,7.80
2022-11-23T23:36:12.869Z,6.72
2022-11-23T23:38:40.378Z,6.82
2022-11-23T23:41:08.856Z,6.22
2022-11-23T23:43:35.730Z,6.03
2022-11-23T23:46:04.690Z,5.82
2022-11-23T23:48:33.801Z,6.63
2022-11-23T23:51:25.926Z,6.05
2022-11-23T23:53:52.838Z,6.65
2022-11-23T23:56:27.678Z,6.38
2022-11-23T23:58:59.031Z,5.65
